Campiña-No se requiere un especial cuidado respecto a la situación meteorológica.   -   No hay avisos

Informes METAR

 

LEZL - Sevilla, Spain
Distancia de la estación: ENE 8km
Actualización: 26/01/2020 16:30
Poco nuboso
Poco nuboso
 Viento de SSO
Viento: SSO 9 km/h
Temperatura: 16°C
Rocío: 9°C
Humedad: 63%
Barómetro: 1025 hPa
Nubes: Poco nuboso
Visibilidad: 10 km
Detalles de las nubes: Poco nuboso 610 m
2020/01/26 15:30 LEZL 261530Z 20005KT 110V280 9999 FEW020 16/09 Q1025 NOSIG
LEMO - Morón, Spain
Distancia de la estación: SE 43km
Actualización: 26/01/2020 17:00
Poco nuboso
Poco nuboso
 Viento de O
Viento: O 7 km/h
Temperatura: 15°C
Rocío: 7°C
Humedad: 59%
Barómetro: 1025 hPa
Nubes: Poco nuboso
Visibilidad: 10 km
Detalles de las nubes: Poco nuboso 1524 m
2020/01/26 16:00 LEMO 261600Z 26004KT 200V290 9999 FEW050 15/07 Q1025 NOSIG
LEJR - Jeréz, Spain
Distancia de la estación: S 71km
Actualización: 26/01/2020 16:30
Poco nuboso
Poco nuboso
 Viento de ONO
Viento: ONO 9 km/h
Temperatura: 16°C
Rocío: 8°C
Humedad: 59%
Barómetro: 1025 hPa
Nubes: Poco nuboso
Visibilidad: 10 km
Detalles de las nubes: Poco nuboso 914 m
2020/01/26 15:30 LEJR 261530Z 30005KT 230V350 9999 FEW030 16/08 Q1025
 
LERT - Rota, Spain
Distancia de la estación: SSO 89km
Actualización: 26/01/2020 16:00
Poco nuboso
Poco nuboso
 Viento de NO
Viento: NO 9 km/h
Temperatura: 15°C
Rocío: 9°C
Humedad: 68%
Barómetro: 1025 hPa
Nubes: Poco nuboso
Visibilidad: 10 km
Detalles de las nubes: Poco nuboso 457 m
2020/01/26 15:00 LERT 261500Z 32005KT 280V070 9999 FEW015 15/09 Q1025 NOSIG
LEMG - Málaga, Spain
Distancia de la estación: ESE 157km
Actualización: 26/01/2020 16:30
Poco nuboso
Poco nuboso
 Viento de NO
Viento: NO 17 km/h
Temperatura: 17°C
Rocío: 6°C
Humedad: 49%
Barómetro: 1024 hPa
Nubes: Poco nuboso
Visibilidad: 10 km
Detalles de las nubes: Poco nuboso 1524 m
2020/01/26 15:30 LEMG 261530Z 31009KT 9999 FEW050 17/06 Q1024 NOSIG
LEBA - Córdoba, Spain
Distancia de la estación: ENE 115km
Actualización: 26/01/2020 16:30
Parcialmente nuboso
Parcialmente nuboso
 Viento de OSO
Viento: OSO 6 km/h
Temperatura: 13°C
Rocío: 8°C
Humedad: 72%
Barómetro: 1025 hPa
Nubes: Parcialmente nuboso
Visibilidad: 10 km
Detalles de las nubes: Poco nuboso 457 m
Parcialmente nuboso 610 m
2020/01/26 15:30 LEBA 261530Z 24003KT 190V290 9999 FEW015 SCT020 13/08 Q1025
 
LEGR - Granada, Spain
Distancia de la estación: E 198km
Actualización: 26/01/2020 16:30
Poco nuboso
Poco nuboso
 Viento de NO
Viento: NO 9 km/h
Temperatura: 12°C
Rocío: 2°C
Humedad: 51%
Barómetro: 1024 hPa
Nubes: Poco nuboso
Visibilidad: 10 km
Detalles de las nubes: Poco nuboso 1372 m
2020/01/26 15:30 LEGR 261530Z 32005KT 290V350 9999 FEW045 12/02 Q1024
LEAM - Almería, Spain
Distancia de la estación: E 326km
Actualización: 26/01/2020 16:30
Poco nuboso
Poco nuboso
 Viento de SSE
Viento: SSE 6 km/h
Temperatura: 16°C
Rocío: 11°C
Humedad: 72%
Barómetro: 1022 hPa
Nubes: Poco nuboso
Visibilidad: 10 km
Detalles de las nubes: Poco nuboso 914 m
2020/01/26 15:30 LEAM 261530Z 15003KT 110V190 9999 FEW030 16/11 Q1022
LEMD - Madrid/Barajas, Spain
Distancia de la estación: NNE 402km
Actualización: 26/01/2020 16:30
Muy nuboso
Muy nuboso
 Viento de SSE
Viento: SSE 9 km/h
Temperatura: 11°C
Rocío: 4°C
Humedad: 62%
Barómetro: 1022 hPa
Nubes: Muy nuboso
Visibilidad: 10 km
Detalles de las nubes: Muy nuboso 1524 m
2020/01/26 15:30 LEMD 261530Z 15005KT 110V180 9999 BKN050 11/04 Q1022 NOSIG
 
LEVD - Valladolid, Spain
Distancia de la estación: N 492km
Actualización: 26/01/2020 16:30
Muy nuboso
Muy nuboso
 Viento de OSO
Viento: OSO 17 km/h
Temperatura: 6°C
Sensación térmica: 3°C
Rocío: 4°C
Humedad: 87%
Barómetro: 1022 hPa
Nubes: Muy nuboso
Visibilidad: 10 km
Detalles de las nubes: Poco nuboso 244 m
Parcialmente nuboso 457 m
Muy nuboso 914 m
2020/01/26 15:30 LEVD 261530Z 25009KT 9999 FEW008 SCT015 BKN030 06/04 Q1022
LEBL - Barcelona, Spain
Distancia de la estación: NE 816km
Actualización: 26/01/2020 16:30
Muy nuboso
Muy nuboso
 Viento de NE
Viento: NE 20 km/h
Temperatura: 14°C
Rocío: 10°C
Humedad: 77%
Barómetro: 1020 hPa
Nubes: Muy nuboso
Visibilidad: 10 km
Detalles de las nubes: Poco nuboso 975 m
Muy nuboso 1219 m
2020/01/26 15:30 LEBL 261530Z 04011KT 360V080 9999 FEW032 BKN040 14/10 Q1020 NOSIG
LEVC - Valencia, Spain
Distancia de la estación: ENE 535km
Actualización: 26/01/2020 16:30
Poco nuboso
Poco nuboso
 Viento de O
Viento: O 11 km/h
Temperatura: 19°C
Rocío: 5°C
Humedad: 40%
Barómetro: 1020 hPa
Nubes: Poco nuboso
Visibilidad: 10 km
Detalles de las nubes: Poco nuboso 914 m
2020/01/26 15:30 LEVC 261530Z 26006KT 210V300 9999 FEW030 19/05 Q1020 NOSIG